Time;durP1;ratioP1;P1;durP2;ratioP2;P2;SDS_P1;SDS_P2;PMS_P1;PMS_P2;Temp;Humidity;BMP_temperature;BMP_pressure;BME280_temperature;BME280_humidity;BME280_pressure;Samples;Min_cycle;Max_cycle;Signal;HPM_P1;HPM_P2
2023/01/26 00:01:00;;;;;;;120.90;44.97;;;;;;;-1.52;100.00;102387.34;5252531;28;20047;-71
2023/01/26 00:03:31;;;;;;;122.68;44.28;;;;;;;-1.45;100.00;102384.72;5249772;28;20170;-71
2023/01/26 00:06:08;;;;;;;121.40;44.10;;;;;;;-1.45;100.00;102387.31;5260842;28;20368;-71
2023/01/26 00:08:45;;;;;;;118.45;46.20;;;;;;;-1.49;100.00;102384.72;5251117;28;20398;-71
2023/01/26 00:11:27;;;;;;;119.53;43.38;;;;;;;-1.42;100.00;102381.19;5253806;28;20459;-71
2023/01/26 00:13:59;;;;;;;121.90;44.13;;;;;;;-1.47;100.00;102378.59;5248348;28;20369;-71
2023/01/26 00:16:31;;;;;;;117.20;43.08;;;;;;;-1.53;100.00;102373.38;5252262;28;20862;-71
2023/01/26 00:19:02;;;;;;;120.85;45.03;;;;;;;-1.57;100.00;102363.81;5255749;28;20032;-71
2023/01/26 00:21:34;;;;;;;110.28;42.63;;;;;;;-1.58;100.00;102367.28;5252761;28;20044;-71
2023/01/26 00:24:05;;;;;;;111.20;41.13;;;;;;;-1.59;100.00;102366.41;5256719;28;20029;-71
2023/01/26 00:26:37;;;;;;;110.25;42.67;;;;;;;-1.59;100.00;102362.94;5251555;28;20024;-72
2023/01/26 00:29:08;;;;;;;114.30;42.65;;;;;;;-1.47;100.00;102357.66;5255153;28;20063;-71
2023/01/26 00:31:39;;;;;;;117.90;44.13;;;;;;;-1.53;100.00;102360.31;5256304;28;20510;-71
2023/01/26 00:34:10;;;;;;;118.32;44.15;;;;;;;-1.51;100.00;102360.31;5248369;28;20032;-71
2023/01/26 00:36:42;;;;;;;118.00;46.15;;;;;;;-1.48;100.00;102350.66;5248379;28;20035;-71
2023/01/26 00:39:13;;;;;;;114.25;41.88;;;;;;;-1.48;100.00;102345.44;5251119;28;20079;-71
2023/01/26 00:44:37;;;;;;;116.57;43.13;;;;;;;-1.41;100.00;102347.16;5246174;28;20726;-71
2023/01/26 00:47:11;;;;;;;109.20;41.20;;;;;;;-1.45;100.00;102334.09;5249389;28;20119;-71
2023/01/26 00:49:43;;;;;;;109.70;39.95;;;;;;;-1.43;100.00;102342.84;5247375;28;20086;-71
2023/01/26 00:52:14;;;;;;;109.03;41.35;;;;;;;-1.33;100.00;102333.19;5248992;28;20029;-71
2023/01/26 00:54:46;;;;;;;107.55;41.53;;;;;;;-1.34;100.00;102328.81;5249336;28;20086;-71
2023/01/26 00:57:17;;;;;;;106.22;40.45;;;;;;;-1.46;100.00;102325.41;5247486;28;20108;-71
2023/01/26 00:59:48;;;;;;;107.78;40.70;;;;;;;-1.35;100.00;102319.25;5247998;28;20025;-71
2023/01/26 01:02:19;;;;;;;110.53;42.15;;;;;;;-1.40;100.00;102314.91;5250019;28;20032;-71
2023/01/26 01:04:51;;;;;;;110.78;41.50;;;;;;;-1.39;100.00;102316.63;5246965;28;20056;-71
2023/01/26 01:07:23;;;;;;;100.72;40.20;;;;;;;-1.44;100.00;102314.88;5245592;28;20028;-72
2023/01/26 01:09:54;;;;;;;107.10;40.38;;;;;;;-1.46;100.00;102314.94;5249534;28;20458;-71
2023/01/26 01:12:26;;;;;;;106.65;40.50;;;;;;;-1.46;100.00;102308.78;5249563;28;20027;-71
2023/01/26 01:14:58;;;;;;;108.00;41.33;;;;;;;-1.44;100.00;102296.56;5246621;28;21500;-71
2023/01/26 01:17:29;;;;;;;105.68;38.83;;;;;;;-1.34;100.00;102300.03;5251298;28;20063;-71
2023/01/26 01:20:05;;;;;;;102.88;39.95;;;;;;;-1.43;100.00;102309.66;5244040;28;20383;-71
2023/01/26 01:22:36;;;;;;;100.45;39.33;;;;;;;-1.40;100.00;102317.50;5247020;28;21884;-71
2023/01/26 01:25:08;;;;;;;91.70;37.00;;;;;;;-1.41;100.00;102317.50;5231147;28;20032;-71
2023/01/26 01:27:39;;;;;;;104.53;39.60;;;;;;;-1.36;100.00;102315.75;5249262;28;20474;-72
2023/01/26 01:30:11;;;;;;;94.82;37.63;;;;;;;-1.39;100.00;102308.78;5246128;28;20033;-71
2023/01/26 01:32:43;;;;;;;91.50;37.90;;;;;;;-1.36;100.00;102312.25;5249383;28;20029;-71
2023/01/26 01:35:14;;;;;;;97.28;38.60;;;;;;;-1.33;100.00;102304.41;5248039;28;20032;-71
2023/01/26 01:37:46;;;;;;;93.07;38.15;;;;;;;-1.36;100.00;102309.63;5247698;28;20025;-71
2023/01/26 01:40:17;;;;;;;94.43;36.67;;;;;;;-1.36;100.00;102310.53;5246947;28;20119;-71
2023/01/26 01:42:48;;;;;;;98.28;38.92;;;;;;;-1.38;100.00;102312.28;5247594;28;20028;-71
2023/01/26 01:45:37;;;;;;;95.82;36.72;;;;;;;-1.37;100.00;102308.78;5246650;28;20104;-71
2023/01/26 01:48:16;;;;;;;90.47;35.72;;;;;;;-1.36;100.00;102320.09;5247517;28;20398;-72
2023/01/26 01:50:48;;;;;;;92.40;37.72;;;;;;;-1.38;100.00;102310.53;5243187;28;20494;-71
2023/01/26 01:53:26;;;;;;;99.90;38.55;;;;;;;-1.38;100.00;102315.75;5247126;28;20025;-71
2023/01/26 01:56:01;;;;;;;93.15;38.42;;;;;;;-1.37;100.00;102316.63;5243627;28;20060;-71
2023/01/26 01:58:36;;;;;;;87.68;36.97;;;;;;;-1.40;100.00;102322.75;5245548;28;20032;-71
2023/01/26 02:01:09;;;;;;;94.47;37.42;;;;;;;-1.38;100.00;102317.53;5248016;28;20029;-72
2023/01/26 02:03:43;;;;;;;98.18;36.90;;;;;;;-1.39;100.00;102311.38;5246020;28;20589;-71
2023/01/26 02:06:18;;;;;;;;;;;;;;;-1.35;100.00;102309.63;5248808;28;20478;-71
2023/01/26 02:08:52;;;;;;;90.25;36.28;;;;;;;-1.37;100.00;102308.78;5246825;28;19921;-71
2023/01/26 02:11:29;;;;;;;74.60;27.98;;;;;;;-1.30;100.00;102307.88;5248833;28;20060;-71
2023/01/26 02:14:05;;;;;;;95.25;36.50;;;;;;;-1.29;100.00;102313.97;5245350;28;20032;-72
2023/01/26 02:16:38;;;;;;;98.10;38.08;;;;;;;-1.27;100.00;102296.50;5249997;28;20032;-71
2023/01/26 02:19:29;;;;;;;100.43;39.13;;;;;;;-1.30;100.00;102293.94;5247574;28;20033;-71
2023/01/26 02:22:09;;;;;;;93.88;37.00;;;;;;;-1.20;100.00;102280.78;5247516;28;20057;-71
2023/01/26 02:24:41;;;;;;;99.10;37.75;;;;;;;-1.24;100.00;102283.44;5248409;28;20543;-71
2023/01/26 02:27:12;;;;;;;93.97;36.95;;;;;;;-1.25;100.00;102274.69;5247700;28;20036;-71
2023/01/26 02:29:43;;;;;;;93.18;36.17;;;;;;;-1.15;100.00;102277.25;5244161;28;20040;-71
2023/01/26 02:32:15;;;;;;;98.68;36.60;;;;;;;-1.09;100.00;102278.13;5250121;28;20037;-72
2023/01/26 02:34:46;;;;;;;91.50;35.90;;;;;;;-1.22;100.00;102281.66;5249848;28;20538;-71
2023/01/26 02:37:17;;;;;;;93.47;35.88;;;;;;;-1.19;100.00;102286.88;5250428;28;20108;-71
2023/01/26 02:39:55;;;;;;;96.25;36.13;;;;;;;-1.13;100.00;102284.25;5248367;28;20372;-71
2023/01/26 02:42:40;;;;;;;91.60;35.78;;;;;;;-1.15;100.00;102277.25;5250077;28;20025;-71
2023/01/26 02:45:14;;;;;;;94.45;36.45;;;;;;;-1.20;100.00;102280.78;5250548;28;20482;-71
2023/01/26 02:47:46;;;;;;;88.75;34.85;;;;;;;-1.21;100.00;102279.03;5249723;28;21279;-70
2023/01/26 02:50:17;;;;;;;86.13;34.72;;;;;;;-1.20;100.00;102275.53;5250302;28;20033;-71
2023/01/26 02:52:48;;;;;;;89.47;33.85;;;;;;;-1.20;100.00;102272.06;5249713;28;20033;-71
2023/01/26 02:55:26;;;;;;;89.22;35.72;;;;;;;-1.22;100.00;102276.44;5250194;28;20107;-71
2023/01/26 02:58:00;;;;;;;95.75;37.40;;;;;;;-1.17;100.00;102269.41;5250302;28;20042;-71
2023/01/26 03:00:35;;;;;;;91.65;36.03;;;;;;;-1.10;100.00;102271.13;5248206;28;20044;-71
2023/01/26 03:03:13;;;;;;;90.75;35.78;;;;;;;-1.14;100.00;102263.31;5248280;28;20471;-71
2023/01/26 03:05:45;;;;;;;90.15;36.65;;;;;;;-1.01;100.00;102268.47;5248699;28;20126;-71
2023/01/26 03:08:16;;;;;;;85.03;34.90;;;;;;;-1.04;100.00;102259.75;5250986;28;20487;-71
2023/01/26 03:10:48;;;;;;;93.28;35.78;;;;;;;-1.08;100.00;102263.25;5246236;28;20028;-71
2023/01/26 03:13:19;;;;;;;93.63;35.15;;;;;;;-1.09;100.00;102261.53;5249731;28;20108;-72
2023/01/26 03:15:53;;;;;;;87.53;34.15;;;;;;;-1.09;100.00;102267.63;5246828;28;20033;-71
2023/01/26 03:29:51;;;;;;;81.82;32.13;;;;;;;-1.05;100.00;102261.50;5247787;28;20036;-71
2023/01/26 03:32:24;;;;;;;80.88;32.78;;;;;;;-1.08;100.00;102258.88;5247544;28;20033;-71
2023/01/26 03:34:55;;;;;;;81.47;32.90;;;;;;;-1.00;100.00;102258.84;5247643;28;20052;-71
2023/01/26 03:37:26;;;;;;;74.57;32.42;;;;;;;-1.07;100.00;102260.63;5246693;28;20090;-71
2023/01/26 03:56:58;;;;;;;83.85;33.72;;;;;;;-0.95;100.00;102256.22;5245314;28;20064;-72
2023/01/26 03:59:38;;;;;;;74.45;32.20;;;;;;;-0.96;100.00;102249.22;5247937;28;20108;-72
2023/01/26 04:10:40;;;;;;;78.88;31.63;;;;;;;-0.83;100.00;102243.03;5248372;28;20045;-72
2023/01/26 04:21:42;;;;;;;77.97;29.98;;;;;;;-0.92;100.00;102246.59;5245627;28;20053;-73
2023/01/26 04:24:14;;;;;;;75.32;29.40;;;;;;;-0.92;100.00;102254.44;5248112;28;20037;-73
2023/01/26 04:26:45;;;;;;;72.00;28.02;;;;;;;-0.89;100.00;102245.69;5247543;28;20055;-73
2023/01/26 04:29:16;;;;;;;77.38;30.05;;;;;;;-0.90;100.00;102238.69;5246231;28;20037;-73
2023/01/26 04:31:47;;;;;;;78.68;29.83;;;;;;;-0.93;100.00;102241.34;5248210;28;20033;-72
2023/01/26 04:34:19;;;;;;;71.10;26.15;;;;;;;-0.93;100.00;102241.34;5248491;28;20028;-73
2023/01/26 04:36:50;;;;;;;72.35;27.50;;;;;;;-0.88;100.00;102240.44;5245676;28;20582;-73
2023/01/26 04:39:21;;;;;;;70.00;27.63;;;;;;;-0.92;100.00;102243.97;5249213;28;20076;-74
2023/01/26 04:41:53;;;;;;;68.50;25.77;;;;;;;-0.83;100.00;102245.66;5246503;28;20060;-73
2023/01/26 04:44:24;;;;;;;67.85;25.45;;;;;;;-0.90;100.00;102246.56;5250323;28;20032;-73
2023/01/26 04:46:55;;;;;;;64.53;24.77;;;;;;;-0.92;100.00;102243.06;5247778;28;20035;-73
2023/01/26 04:49:26;;;;;;;61.10;24.02;;;;;;;-0.92;100.00;102240.47;5247370;28;20169;-73
2023/01/26 04:51:58;;;;;;;63.17;24.02;;;;;;;-0.94;100.00;102244.84;5247832;28;20033;-73
2023/01/26 04:54:29;;;;;;;63.97;24.42;;;;;;;-0.94;100.00;102244.84;5247672;28;20112;-73
2023/01/26 04:57:00;;;;;;;60.28;23.35;;;;;;;-0.96;100.00;102238.75;5248593;28;20040;-73
2023/01/26 04:59:32;;;;;;;60.95;24.20;;;;;;;-0.92;100.00;102245.69;5244711;28;20048;-73
2023/01/26 05:02:04;;;;;;;59.00;23.23;;;;;;;-0.93;100.00;102243.97;5238651;28;20028;-73
2023/01/26 05:04:39;;;;;;;60.00;23.42;;;;;;;-0.95;100.00;102237.88;5246201;28;20025;-73
2023/01/26 05:07:11;;;;;;;57.65;22.80;;;;;;;-0.97;100.00;102237.88;5252427;28;20040;-73
2023/01/26 05:09:42;;;;;;;63.03;23.45;;;;;;;-0.94;100.00;102247.47;5254749;28;20036;-73
2023/01/26 05:15:03;;;;;;;55.65;22.90;;;;;;;-0.94;100.00;102237.88;5250525;28;20615;-73
2023/01/26 05:17:35;;;;;;;59.40;22.35;;;;;;;-0.85;100.00;102229.94;5251613;28;20463;-73
2023/01/26 05:20:07;;;;;;;53.60;21.90;;;;;;;-0.92;100.00;102243.06;5245582;28;20029;-73
2023/01/26 05:22:38;;;;;;;54.92;21.90;;;;;;;-0.92;100.00;102235.22;5246278;28;20136;-67
2023/01/26 05:25:10;;;;;;;56.78;22.90;;;;;;;-0.93;100.00;102234.34;5257061;28;20479;-67
2023/01/26 05:27:41;;;;;;;58.70;22.65;;;;;;;-0.93;100.00;102247.47;5254445;28;20067;-67
2023/01/26 05:30:13;;;;;;;54.47;21.55;;;;;;;-0.92;100.00;102246.59;5250991;28;20267;-67
2023/01/26 05:32:44;;;;;;;53.20;21.48;;;;;;;-0.92;100.00;102240.47;5249620;28;20027;-68
2023/01/26 05:35:15;;;;;;;57.03;20.80;;;;;;;-0.93;100.00;102241.34;5252097;28;20115;-67
2023/01/26 05:37:47;;;;;;;54.13;21.10;;;;;;;-0.94;100.00;102248.34;5252934;28;20107;-67
2023/01/26 05:40:18;;;;;;;51.80;20.90;;;;;;;-0.94;100.00;102240.50;5250966;28;20033;-67
2023/01/26 05:42:50;;;;;;;55.35;21.73;;;;;;;-0.94;100.00;102245.72;5245139;28;20043;-67
2023/01/26 05:45:21;;;;;;;55.08;21.35;;;;;;;-0.76;100.00;102249.13;5251767;28;20674;-67
2023/01/26 05:47:52;;;;;;;55.00;20.75;;;;;;;-0.82;100.00;102250.88;5251302;28;20118;-68
2023/01/26 05:50:23;;;;;;;56.05;20.92;;;;;;;-0.73;100.00;102243.84;5247419;28;20027;-68
2023/01/26 05:52:55;;;;;;;53.88;21.73;;;;;;;-0.81;100.00;102254.38;5253698;28;20531;-68
2023/01/26 05:55:27;;;;;;;52.60;20.52;;;;;;;-0.80;100.00;102245.63;5248106;28;20021;-67
2023/01/26 05:57:58;;;;;;;48.88;19.73;;;;;;;-0.81;100.00;102247.38;5251586;28;20075;-67
2023/01/26 06:00:29;;;;;;;50.95;19.83;;;;;;;-0.81;100.00;102252.59;5247947;28;20066;-67
2023/01/26 06:03:01;;;;;;;52.22;19.90;;;;;;;-0.82;100.00;102245.66;5242686;28;20044;-68
2023/01/26 06:05:32;;;;;;;54.40;19.70;;;;;;;-0.82;100.00;102255.25;5246517;28;20423;-68
2023/01/26 06:08:03;;;;;;;49.38;20.35;;;;;;;-0.83;100.00;102253.50;5248472;28;20028;-67
2023/01/26 06:10:35;;;;;;;57.10;22.55;;;;;;;-0.81;100.00;102257.84;5250616;28;20028;-67
2023/01/26 06:13:06;;;;;;;50.72;19.17;;;;;;;-0.81;100.00;102257.00;5256687;28;20041;-67
2023/01/26 06:15:38;;;;;;;50.63;19.60;;;;;;;-0.81;100.00;102260.47;5257971;28;20115;-67
2023/01/26 06:18:09;;;;;;;47.50;19.55;;;;;;;-0.75;100.00;102269.19;5258466;28;20370;-67
2023/01/26 06:20:40;;;;;;;48.72;19.38;;;;;;;-0.75;100.00;102266.56;5253047;28;20098;-68
2023/01/26 06:23:12;;;;;;;50.30;19.70;;;;;;;-0.76;100.00;102275.31;5256798;28;20033;-67
2023/01/26 06:25:43;;;;;;;50.10;20.63;;;;;;;-0.77;100.00;102263.09;5252471;28;20032;-67
2023/01/26 06:28:15;;;;;;;52.15;20.00;;;;;;;-0.75;100.00;102258.69;5257600;28;20029;-67
2023/01/26 06:30:46;;;;;;;51.60;19.17;;;;;;;-0.76;100.00;102264.84;5256792;28;20087;-67
2023/01/26 06:33:17;;;;;;;54.85;20.13;;;;;;;-0.75;100.00;102261.31;5251858;28;20025;-67
2023/01/26 06:35:49;;;;;;;52.92;20.70;;;;;;;-0.77;100.00;102265.69;5259964;28;20075;-68
2023/01/26 06:38:20;;;;;;;51.75;20.40;;;;;;;-0.76;100.00;102264.84;5255272;28;20060;-67
2023/01/26 06:40:52;;;;;;;52.78;19.25;;;;;;;-0.77;100.00;102270.94;5255873;28;20029;-67
2023/01/26 06:43:23;;;;;;;50.90;19.80;;;;;;;-0.77;100.00;102273.56;5257523;28;20021;-67
2023/01/26 06:45:56;;;;;;;49.97;19.30;;;;;;;-0.80;100.00;102275.31;5257625;28;20047;-67
2023/01/26 06:48:29;;;;;;;50.25;18.80;;;;;;;-0.80;100.00;102272.72;5255827;28;20134;-67
2023/01/26 06:51:19;;;;;;;50.38;18.45;;;;;;;-0.78;100.00;102271.84;5255585;28;20025;-67
2023/01/26 06:53:53;;;;;;;51.58;19.55;;;;;;;-0.78;100.00;102271.84;5255875;28;20036;-67
2023/01/26 06:56:26;;;;;;;54.72;20.05;;;;;;;-0.76;100.00;102272.69;5254821;28;20048;-67
2023/01/26 06:58:58;;;;;;;48.13;17.88;;;;;;;-0.78;100.00;102277.94;5255614;28;20060;-67
2023/01/26 07:01:36;;;;;;;51.25;18.38;;;;;;;-0.78;100.00;102277.94;5254451;28;20111;-67
2023/01/26 07:04:07;;;;;;;50.78;18.98;;;;;;;-0.73;100.00;102281.41;5255681;28;20037;-68
2023/01/26 07:06:39;;;;;;;49.67;18.63;;;;;;;-0.73;100.00;102273.56;5253349;28;20024;-67
2023/01/26 07:09:10;;;;;;;52.47;19.60;;;;;;;-0.73;100.00;102272.66;5248454;28;20037;-67
2023/01/26 07:11:42;;;;;;;47.65;19.30;;;;;;;-0.70;100.00;102276.13;5252379;28;20487;-67
2023/01/26 07:14:13;;;;;;;54.50;19.83;;;;;;;-0.73;100.00;102278.78;5252965;28;20131;-67
2023/01/26 07:16:44;;;;;;;50.13;19.83;;;;;;;-0.73;100.00;102288.38;5250421;28;20380;-67
2023/01/26 07:19:16;;;;;;;51.42;20.25;;;;;;;-0.74;100.00;102290.16;5257334;28;20037;-67
2023/01/26 07:21:47;;;;;;;56.45;20.40;;;;;;;-0.73;100.00;102281.41;5254029;28;20450;-67
2023/01/26 07:24:20;;;;;;;52.65;19.30;;;;;;;-0.73;100.00;102291.00;5254711;28;20552;-68
2023/01/26 07:26:52;;;;;;;57.83;20.23;;;;;;;-0.77;100.00;102287.53;5250628;28;20059;-68
2023/01/26 07:29:24;;;;;;;55.20;20.23;;;;;;;-0.78;100.00;102287.56;5251479;28;20025;-67
2023/01/26 07:31:55;;;;;;;52.72;20.65;;;;;;;-0.79;100.00;102284.03;5257165;28;20107;-68
2023/01/26 07:34:26;;;;;;;57.97;20.40;;;;;;;-0.73;100.00;102291.00;5256879;28;20037;-67
2023/01/26 07:36:58;;;;;;;62.25;21.38;;;;;;;-0.73;100.00;102291.91;5253062;28;20052;-67
2023/01/26 07:39:29;;;;;;;56.05;20.10;;;;;;;-0.74;100.00;102290.16;5257383;28;20443;-67
2023/01/26 07:42:01;;;;;;;59.05;21.08;;;;;;;-0.73;100.00;102286.66;5254586;28;20495;-67
2023/01/26 07:44:32;;;;;;;64.57;21.73;;;;;;;-0.73;100.00;102281.41;5250273;28;20025;-67
2023/01/26 07:47:03;;;;;;;57.08;20.63;;;;;;;-0.76;100.00;102289.28;5254018;28;20119;-67
2023/01/26 07:49:34;;;;;;;57.15;21.38;;;;;;;-0.65;100.00;102286.59;5257178;28;20028;-67
2023/01/26 07:52:07;;;;;;;52.35;18.83;;;;;;;-0.64;100.00;102291.81;5256476;28;20452;-67
2023/01/26 07:54:38;;;;;;;60.33;20.05;;;;;;;-0.69;100.00;102297.97;5264864;28;20374;-67
2023/01/26 07:57:11;;;;;;;61.22;20.95;;;;;;;-0.70;100.00;102301.47;5257949;28;20029;-67
2023/01/26 07:59:42;;;;;;;63.92;21.55;;;;;;;-0.69;100.00;102305.81;5249653;28;20039;-67
2023/01/26 08:02:14;;;;;;;59.35;20.95;;;;;;;-0.68;100.00;102310.19;5249158;28;20033;-67
2023/01/26 08:04:45;;;;;;;61.67;22.85;;;;;;;-0.71;100.00;102313.72;5251715;28;20029;-67
2023/01/26 08:07:16;;;;;;;59.00;21.98;;;;;;;-0.72;100.00;102306.72;5249299;28;20028;-67
2023/01/26 08:09:48;;;;;;;67.45;23.52;;;;;;;-0.70;100.00;102310.22;5255916;28;20040;-67
2023/01/26 08:12:19;;;;;;;65.95;22.23;;;;;;;-0.69;100.00;102311.97;5255856;28;20039;-67
2023/01/26 08:14:50;;;;;;;65.63;22.80;;;;;;;-0.66;100.00;102313.69;5252495;28;20032;-67
2023/01/26 08:17:22;;;;;;;61.35;22.77;;;;;;;-0.66;100.00;102319.78;5253144;28;20041;-67
2023/01/26 08:19:53;;;;;;;65.10;23.15;;;;;;;-0.66;100.00;102321.53;5250704;28;20021;-67
2023/01/26 08:22:25;;;;;;;72.50;24.38;;;;;;;-0.68;100.00;102321.53;5254730;28;20054;-67
2023/01/26 08:24:56;;;;;;;67.63;23.20;;;;;;;-0.66;100.00;102318.91;5256527;28;20210;-67
2023/01/26 08:27:27;;;;;;;68.97;23.23;;;;;;;-0.67;100.00;102322.41;5256047;28;20039;-67
2023/01/26 08:29:59;;;;;;;65.68;22.48;;;;;;;-0.65;100.00;102318.06;5249514;28;20163;-67
2023/01/26 08:32:30;;;;;;;71.63;24.35;;;;;;;-0.64;100.00;102317.16;5256057;28;20033;-68
2023/01/26 08:35:02;;;;;;;68.65;24.60;;;;;;;-0.61;100.00;102320.63;5248943;28;20398;-67
2023/01/26 08:37:33;;;;;;;68.10;23.50;;;;;;;-0.64;100.00;102322.41;5254926;28;20416;-68
2023/01/26 08:40:05;;;;;;;60.88;23.58;;;;;;;-0.64;100.00;102325.88;5257675;28;20051;-67
2023/01/26 08:42:36;;;;;;;70.90;23.52;;;;;;;-0.61;100.00;102328.50;5256943;28;20028;-67
2023/01/26 08:45:08;;;;;;;66.65;24.02;;;;;;;-0.61;100.00;102323.25;5253273;28;20493;-67
2023/01/26 08:47:39;;;;;;;71.63;25.65;;;;;;;-0.62;100.00;102332.00;5256561;28;20060;-68
2023/01/26 08:50:11;;;;;;;75.60;26.55;;;;;;;-0.58;100.00;102331.97;5253947;28;20071;-67
2023/01/26 08:52:42;;;;;;;67.80;23.98;;;;;;;-0.58;100.00;102330.22;5253273;28;20029;-67
2023/01/26 08:55:14;;;;;;;69.97;24.40;;;;;;;-0.53;100.00;102332.84;5249646;28;20026;-68
2023/01/26 08:57:45;;;;;;;73.03;24.65;;;;;;;-0.54;100.00;102342.44;5251771;28;20032;-67
2023/01/26 09:00:17;;;;;;;77.45;25.08;;;;;;;-0.52;100.00;102335.41;5249057;28;20033;-68
2023/01/26 09:02:49;;;;;;;68.70;25.08;;;;;;;-0.51;100.00;102333.69;5241862;28;20397;-68
2023/01/26 09:05:20;;;;;;;69.97;23.85;;;;;;;-0.47;100.00;102330.16;5252236;28;20021;-67
2023/01/26 09:07:52;;;;;;;80.80;25.33;;;;;;;-0.48;100.00;102333.66;5243617;28;20391;-68
2023/01/26 09:10:23;;;;;;;71.43;24.00;;;;;;;-0.42;100.00;102333.63;5264823;28;20399;-68
2023/01/26 09:12:57;;;;;;;75.95;24.17;;;;;;;-0.42;100.00;102341.50;5254699;28;20040;-68
2023/01/26 09:15:28;;;;;;;70.28;23.85;;;;;;;-0.33;100.00;102330.94;5254044;28;20036;-68
2023/01/26 09:17:59;;;;;;;77.72;26.00;;;;;;;-0.36;100.00;102333.59;5255228;28;20032;-68
2023/01/26 09:20:31;;;;;;;71.88;23.98;;;;;;;-0.33;100.00;102330.94;5254768;28;20074;-68
2023/01/26 09:23:02;;;;;;;84.25;26.58;;;;;;;-0.32;100.00;102330.06;5251583;28;20033;-68
2023/01/26 09:25:37;;;;;;;100.63;29.35;;;;;;;-0.33;100.00;102341.41;5242357;28;20022;-68
2023/01/26 09:28:09;;;;;;;77.13;25.60;;;;;;;-0.31;100.00;102333.53;5254464;28;20104;-68
2023/01/26 09:30:40;;;;;;;79.60;25.02;;;;;;;-0.22;100.00;102343.97;5251156;28;20036;-68
2023/01/26 09:33:11;;;;;;;84.18;26.25;;;;;;;-0.25;100.00;102352.75;5252258;28;20505;-69
2023/01/26 09:35:43;;;;;;;92.68;25.83;;;;;;;-0.25;100.00;102347.50;5254163;28;20037;-68
2023/01/26 09:38:14;;;;;;;78.40;23.98;;;;;;;-0.22;100.00;102346.59;5268392;28;20039;-68
2023/01/26 09:41:13;;;;;;;84.45;25.83;;;;;;;-0.23;100.00;102342.22;5251922;28;20071;-68
2023/01/26 09:43:49;;;;;;;79.65;25.45;;;;;;;-0.21;100.00;102345.72;5249398;28;20033;-70
2023/01/26 09:46:24;;;;;;;82.55;25.30;;;;;;;-0.22;100.00;102346.59;5255151;28;20487;-68
2023/01/26 09:49:11;;;;;;;86.28;25.65;;;;;;;-0.20;100.00;102348.31;5247265;28;20133;-68
2023/01/26 09:51:51;;;;;;;78.75;25.58;;;;;;;-0.20;100.00;102344.84;5251421;28;20069;-69
2023/01/26 09:54:31;;;;;;;81.72;24.95;;;;;;;-0.21;100.00;102346.59;5247349;28;20033;-68
2023/01/26 09:57:14;;;;;;;80.57;25.08;;;;;;;-0.20;100.00;102350.06;5253111;28;20113;-68
2023/01/26 09:59:48;;;;;;;95.07;27.48;;;;;;;-0.21;100.00;102353.59;5248669;28;20021;-69
2023/01/26 10:02:57;;;;;;;79.53;23.90;;;;;;;-0.18;100.00;102355.31;5250367;28;20017;-68
2023/01/26 10:05:36;;;;;;;79.75;26.73;;;;;;;-0.18;100.00;102350.06;5251230;28;20024;-69
2023/01/26 10:08:17;;;;;;;89.45;26.10;;;;;;;-0.15;100.00;102344.78;5254548;28;20097;-69
2023/01/26 10:10:53;;;;;;;86.78;26.50;;;;;;;-0.14;100.00;102347.41;5245288;28;20033;-69
2023/01/26 10:13:25;;;;;;;82.95;25.35;;;;;;;-0.11;100.00;102339.53;5253673;28;20209;-69
2023/01/26 10:16:00;;;;;;;95.07;28.70;;;;;;;-0.08;100.00;102339.47;5246843;28;20132;-69
2023/01/26 10:18:41;;;;;;;96.68;27.98;;;;;;;-0.04;100.00;102340.31;5250986;28;20532;-69
2023/01/26 10:21:17;;;;;;;95.25;28.15;;;;;;;-0.01;100.00;102343.78;5250679;28;20057;-69
2023/01/26 10:23:50;;;;;;;94.93;27.63;;;;;;;0.02;100.00;102337.69;5254858;28;20448;-69
2023/01/26 10:26:22;;;;;;;101.00;29.25;;;;;;;0.05;100.00;102340.25;5252422;28;20031;-69
2023/01/26 10:28:53;;;;;;;90.82;28.77;;;;;;;0.11;100.00;102352.44;5251871;28;20550;-69
2023/01/26 10:31:31;;;;;;;102.53;29.33;;;;;;;0.15;100.00;102338.41;5252333;28;20021;-69
2023/01/26 10:34:14;;;;;;;93.07;29.02;;;;;;;0.17;100.00;102350.66;5253595;28;20048;-70
2023/01/26 10:36:45;;;;;;;95.22;29.45;;;;;;;0.19;100.00;102343.66;5247572;28;20029;-70
2023/01/26 10:39:18;;;;;;;97.97;28.45;;;;;;;0.24;100.00;102343.59;5244130;28;20035;-67
2023/01/26 10:41:58;;;;;;;110.63;30.55;;;;;;;0.28;100.00;102347.91;5250839;28;20067;-70
2023/01/26 10:44:37;;;;;;;98.10;29.55;;;;;;;0.32;100.00;102354.88;5252055;28;20069;-70
2023/01/26 10:47:16;;;;;;;96.65;29.15;;;;;;;0.33;100.00;102348.75;5242075;28;20123;-70
2023/01/26 10:49:48;;;;;;;100.35;30.25;;;;;;;0.37;100.00;102341.72;5249513;28;20031;-69
2023/01/26 10:52:26;;;;;;;100.75;29.83;;;;;;;0.40;100.00;102339.03;5250674;28;20111;-70
2023/01/26 10:55:15;;;;;;;100.90;30.75;;;;;;;0.44;100.00;102343.41;5251074;28;20037;-70
2023/01/26 10:57:47;;;;;;;114.63;31.67;;;;;;;0.49;100.00;102338.97;5257916;28;20028;-69
2023/01/26 11:00:30;;;;;;;105.30;31.80;;;;;;;0.55;100.00;102351.16;5255039;28;20345;-70
2023/01/26 11:03:18;;;;;;;110.80;31.40;;;;;;;0.61;100.00;102344.97;5255164;28;20083;-69
2023/01/26 11:06:05;;;;;;;109.68;32.05;;;;;;;0.66;100.00;102338.78;5257314;28;20025;-70
2023/01/26 11:08:38;;;;;;;117.53;33.15;;;;;;;0.73;100.00;102334.31;5254719;28;20024;-70
2023/01/26 11:11:26;;;;;;;113.45;32.03;;;;;;;0.80;100.00;102340.38;5261841;28;20360;-70
2023/01/26 11:14:15;;;;;;;120.07;32.90;;;;;;;0.90;100.00;102337.66;5257437;28;20090;-70
2023/01/26 11:16:57;;;;;;;124.15;31.90;;;;;;;1.02;100.00;102330.47;5251974;28;20462;-71
2023/01/26 11:19:47;;;;;;;127.28;33.88;;;;;;;1.10;100.00;102337.38;5256141;28;20108;-70
2023/01/26 11:22:56;;;;;;;122.97;31.67;;;;;;;1.18;100.00;102335.50;5247508;28;20040;-71
2023/01/26 11:25:35;;;;;;;117.95;31.13;;;;;;;1.27;100.00;102339.78;5251314;28;20479;-71
2023/01/26 11:28:43;;;;;;;119.18;31.67;;;;;;;1.36;100.00;102338.78;5254807;28;20101;-71
2023/01/26 11:31:35;;;;;;;120.82;32.33;;;;;;;1.46;100.00;102343.03;5253119;28;20134;-71
2023/01/26 11:34:41;;;;;;;122.05;33.97;;;;;;;1.54;100.00;102345.56;5256620;28;20029;-71
2023/01/26 11:37:32;;;;;;;128.02;33.78;;;;;;;1.64;100.00;102339.25;5251983;28;20116;-71
2023/01/26 11:40:16;;;;;;;131.88;32.88;;;;;;;1.73;100.00;102336.50;5256455;28;20028;-71
2023/01/26 11:43:15;;;;;;;123.30;32.60;;;;;;;1.80;100.00;102346.91;5254023;28;20028;-71
2023/01/26 11:46:07;;;;;;;133.15;33.63;;;;;;;1.88;100.00;102331.84;5256599;28;20059;-70
2023/01/26 11:48:55;;;;;;;127.57;31.92;;;;;;;1.91;100.00;102321.28;5249795;28;20021;-72
2023/01/26 11:51:36;;;;;;;114.80;30.50;;;;;;;2.00;100.00;102331.69;5252109;28;20067;-70
2023/01/26 11:54:14;;;;;;;111.07;29.15;;;;;;;2.06;100.00;102320.16;5256695;28;20480;-71
2023/01/26 11:56:57;;;;;;;109.50;29.00;;;;;;;2.07;100.00;102320.16;5256202;28;20124;-71
2023/01/26 11:59:45;;;;;;;99.32;28.73;;;;;;;2.12;100.00;102317.44;5259588;28;20029;-70
2023/01/26 12:02:28;;;;;;;101.50;30.02;;;;;;;2.19;100.00;102313.81;5247570;28;20577;-70
2023/01/26 12:05:09;;;;;;;96.63;28.42;;;;;;;2.30;100.00;102316.22;5248650;28;20060;-70
2023/01/26 12:07:53;;;;;;;92.95;27.42;;;;;;;2.40;100.00;102303.75;5251157;28;20024;-70
2023/01/26 12:10:39;;;;;;;105.85;27.58;;;;;;;2.46;100.00;102301.88;5254336;28;20033;-70
2023/01/26 12:13:23;;;;;;;101.05;27.55;;;;;;;2.61;100.00;102305.09;5249682;28;20035;-69
2023/01/26 12:16:01;;;;;;;109.63;26.77;;;;;;;2.84;100.00;102299.38;5253406;28;20025;-69
2023/01/26 12:18:39;;;;;;;89.95;25.17;;;;;;;2.99;100.00;102295.53;5251510;28;20501;-70
2023/01/26 12:21:11;;;;;;;84.72;20.95;;;;;;;3.23;100.00;102299.44;5255788;28;20044;-71
2023/01/26 12:23:48;;;;;;;79.55;21.23;;;;;;;3.34;100.00;102292.13;5255573;28;20055;-70
2023/01/26 12:26:23;;;;;;;79.95;19.85;;;;;;;3.49;100.00;102296.16;5252587;28;20079;-70